Time;durP1;ratioP1;P1;durP2;ratioP2;P2;SDS_P1;SDS_P2;PMS_P1;PMS_P2;Temp;Humidity;BMP_temperature;BMP_pressure;BME280_temperature;BME280_humidity;BME280_pressure;Samples;Min_cycle;Max_cycle;Signal;HPM_P1;HPM_P2
2023/05/26 00:00:46;;;;;;;13.35;2.78;;;18.20;99.90;;;;;;5071299;28;20204;-88
2023/05/26 00:03:18;;;;;;;14.32;2.50;;;18.20;99.90;;;;;;5072003;28;20191;-87
2023/05/26 00:05:49;;;;;;;17.42;2.67;;;18.20;99.90;;;;;;5072083;28;20237;-88
2023/05/26 00:08:24;;;;;;;21.48;2.95;;;18.20;99.90;;;;;;5078853;28;20277;-87
2023/05/26 00:10:56;;;;;;;13.73;2.88;;;18.10;99.90;;;;;;5072402;28;20211;-87
2023/05/26 00:13:30;;;;;;;16.75;2.72;;;18.00;99.90;;;;;;5071735;28;20233;-87
2023/05/26 00:16:03;;;;;;;12.50;3.22;;;18.00;99.90;;;;;;5071569;28;20204;-87
2023/05/26 00:18:34;;;;;;;14.50;2.40;;;17.90;99.90;;;;;;5071461;28;20199;-88
2023/05/26 00:21:05;;;;;;;14.90;2.40;;;17.70;99.90;;;;;;5071514;28;20200;-87
2023/05/26 00:23:36;;;;;;;20.50;2.78;;;17.70;99.90;;;;;;5071675;28;20750;-88
2023/05/26 00:26:08;;;;;;;13.02;2.33;;;17.70;99.90;;;;;;5071563;28;20213;-88
2023/05/26 00:28:40;;;;;;;9.25;2.15;;;17.70;99.90;;;;;;5071597;28;20231;-87
2023/05/26 00:31:15;;;;;;;11.50;2.20;;;17.70;99.90;;;;;;5071194;28;20208;-86
2023/05/26 00:33:47;;;;;;;9.45;2.00;;;17.70;99.90;;;;;;5071151;28;20231;-87
2023/05/26 00:36:18;;;;;;;9.95;2.13;;;17.70;99.90;;;;;;5071501;28;20207;-87
2023/05/26 00:38:49;;;;;;;9.00;2.08;;;17.80;99.90;;;;;;5071316;28;20659;-87
2023/05/26 00:41:20;;;;;;;10.93;2.30;;;17.80;99.90;;;;;;5071112;28;20685;-87
2023/05/26 00:43:52;;;;;;;10.88;2.40;;;17.80;99.90;;;;;;5071213;28;20211;-87
2023/05/26 00:46:26;;;;;;;11.35;2.33;;;17.70;99.90;;;;;;5072039;28;20605;-86
2023/05/26 00:48:57;;;;;;;14.27;2.25;;;17.80;99.90;;;;;;5072198;28;20267;-87
2023/05/26 00:51:28;;;;;;;11.20;2.13;;;17.70;99.90;;;;;;5074533;28;20196;-86
2023/05/26 00:53:59;;;;;;;12.07;2.00;;;17.70;99.90;;;;;;5094795;28;20283;-86
2023/05/26 00:56:34;;;;;;;10.73;2.08;;;17.60;99.90;;;;;;5095656;28;20188;-86
2023/05/26 00:59:09;;;;;;;11.75;2.38;;;17.70;99.90;;;;;;5094575;28;20179;-87
2023/05/26 01:01:44;;;;;;;15.98;2.00;;;17.60;99.90;;;;;;5091013;28;20211;-85
2023/05/26 01:04:15;;;;;;;9.80;2.08;;;17.60;99.90;;;;;;5090141;28;20213;-86
2023/05/26 01:06:46;;;;;;;13.68;2.85;;;17.60;99.90;;;;;;5080097;28;20225;-87
2023/05/26 01:09:18;;;;;;;11.07;2.22;;;17.40;99.90;;;;;;5071278;28;20254;-86
2023/05/26 01:11:51;;;;;;;12.90;1.98;;;17.50;99.90;;;;;;5069641;28;20203;-87
2023/05/26 01:14:28;;;;;;;14.10;2.30;;;17.40;99.90;;;;;;5074770;28;20303;-85
2023/05/26 01:17:07;;;;;;;12.70;2.33;;;17.30;99.90;;;;;;5074177;28;20720;-86
2023/05/26 01:20:09;;;;;;;11.00;2.08;;;17.40;99.90;;;;;;5074316;28;20187;-87
2023/05/26 01:23:03;;;;;;;11.55;2.60;;;17.40;99.90;;;;;;5060120;28;20203;-87
2023/05/26 01:26:02;;;;;;;15.52;2.58;;;17.40;99.90;;;;;;5042170;28;20208;-87
2023/05/26 01:28:40;;;;;;;10.35;2.17;;;17.40;99.90;;;;;;5060980;28;20353;-87
2023/05/26 01:31:12;;;;;;;10.82;2.22;;;17.40;99.90;;;;;;5054658;28;20294;-87
2023/05/26 01:33:43;;;;;;;9.85;1.83;;;17.30;99.90;;;;;;5055109;28;20754;-86
2023/05/26 01:36:14;;;;;;;12.25;1.65;;;17.30;99.90;;;;;;5055414;28;20199;-88
2023/05/26 01:38:46;;;;;;;9.43;1.95;;;17.30;99.90;;;;;;5062602;28;20196;-87
2023/05/26 01:41:23;;;;;;;6.20;1.45;;;17.40;99.90;;;;;;5084532;28;20200;-85
2023/05/26 01:44:02;;;;;;;10.38;2.10;;;17.50;99.90;;;;;;5075692;28;20200;-87
2023/05/26 01:46:41;;;;;;;9.57;1.80;;;17.50;99.90;;;;;;5059738;28;20643;-86
2023/05/26 01:49:15;;;;;;;7.20;1.60;;;17.70;99.90;;;;;;5053973;28;20207;-85
2023/05/26 01:51:54;;;;;;;7.00;1.30;;;17.70;99.90;;;;;;5054447;28;20192;-87
2023/05/26 01:54:26;;;;;;;5.45;1.25;;;17.80;99.90;;;;;;5055576;28;20242;-87
2023/05/26 01:56:58;;;;;;;11.30;1.67;;;17.90;99.90;;;;;;5071644;28;20204;-88
2023/05/26 01:59:35;;;;;;;6.40;1.38;;;18.00;99.90;;;;;;5074302;28;20188;-87
2023/05/26 02:02:07;;;;;;;7.45;1.50;;;17.90;99.90;;;;;;5074668;28;20195;-86
2023/05/26 02:04:38;;;;;;;10.25;2.00;;;18.00;99.90;;;;;;5074392;28;20203;-87
2023/05/26 02:07:09;;;;;;;10.57;1.38;;;18.00;99.90;;;;;;5076445;28;20212;-86
2023/05/26 02:09:40;;;;;;;10.20;1.67;;;18.00;99.90;;;;;;5074794;28;20200;-87
2023/05/26 02:12:14;;;;;;;8.48;1.15;;;18.10;99.90;;;;;;5074291;28;20204;-87
2023/05/26 02:14:50;;;;;;;9.85;1.63;;;18.00;99.90;;;;;;5073624;28;20219;-86
2023/05/26 02:17:21;;;;;;;6.90;1.92;;;18.00;99.90;;;;;;5073630;28;20199;-87
2023/05/26 02:19:52;;;;;;;8.15;1.40;;;17.80;99.90;;;;;;5073431;28;20203;-87
2023/05/26 02:22:23;;;;;;;7.97;1.60;;;17.70;99.90;;;;;;5072978;28;20203;-87
2023/05/26 02:24:54;;;;;;;10.23;1.95;;;17.60;99.90;;;;;;5073497;28;20196;-88
2023/05/26 02:27:25;;;;;;;7.72;1.48;;;17.50;99.90;;;;;;5074086;28;20200;-88
2023/05/26 02:30:00;;;;;;;8.18;1.63;;;17.30;99.90;;;;;;5073378;28;20203;-86
2023/05/26 02:32:31;;;;;;;9.63;1.65;;;17.30;99.90;;;;;;5072836;28;20214;-87
2023/05/26 02:35:05;;;;;;;6.55;1.38;;;17.10;99.90;;;;;;5073043;28;20218;-88
2023/05/26 02:37:41;;;;;;;8.60;1.55;;;17.00;99.90;;;;;;5072999;28;20281;-87
2023/05/26 02:40:16;;;;;;;10.52;1.92;;;16.80;99.90;;;;;;5072660;28;20192;-88
2023/05/26 02:42:47;;;;;;;11.77;2.13;;;16.80;99.90;;;;;;5072622;28;20282;-88
2023/05/26 02:45:20;;;;;;;8.95;2.22;;;16.70;99.90;;;;;;5068739;28;20199;-87
2023/05/26 02:47:54;;;;;;;8.60;2.20;;;16.60;99.90;;;;;;5071469;28;20207;-88
2023/05/26 02:50:25;;;;;;;7.55;2.40;;;16.50;99.90;;;;;;5073842;28;20200;-87
2023/05/26 02:52:57;;;;;;;10.10;1.73;;;16.50;99.90;;;;;;5073077;28;20235;-86
2023/05/26 02:55:28;;;;;;;8.05;1.52;;;16.50;99.90;;;;;;5072803;28;20189;-87
2023/05/26 02:58:00;;;;;;;7.15;1.42;;;16.40;99.90;;;;;;5072538;28;20202;-87
2023/05/26 03:00:36;;;;;;;9.73;1.90;;;16.40;99.90;;;;;;5073430;28;20200;-86
2023/05/26 03:03:08;;;;;;;8.80;1.70;;;16.30;99.90;;;;;;5073139;28;20221;-88
2023/05/26 03:05:40;;;;;;;8.93;2.00;;;16.30;99.90;;;;;;5073223;28;20215;-87
2023/05/26 03:08:11;;;;;;;9.02;1.95;;;16.40;99.90;;;;;;5086795;28;20267;-85
2023/05/26 03:10:43;;;;;;;7.07;1.60;;;16.40;99.90;;;;;;5088936;28;20263;-86
2023/05/26 03:13:15;;;;;;;10.38;2.13;;;16.20;99.90;;;;;;5080431;28;20224;-89
2023/05/26 03:15:48;;;;;;;10.35;1.80;;;16.20;99.90;;;;;;5072963;28;20200;-88
2023/05/26 03:18:19;;;;;;;10.07;1.63;;;16.20;99.90;;;;;;5072957;28;20230;-87
2023/05/26 03:20:50;;;;;;;9.05;1.70;;;16.20;99.90;;;;;;5072650;28;20195;-88
2023/05/26 03:23:22;;;;;;;10.20;1.73;;;16.20;99.90;;;;;;5072566;28;20222;-88
2023/05/26 03:25:54;;;;;;;8.98;1.40;;;16.20;99.90;;;;;;5072642;28;20199;-88
2023/05/26 03:28:25;;;;;;;9.75;1.67;;;16.30;99.90;;;;;;5072258;28;20656;-88
2023/05/26 03:30:58;;;;;;;6.07;1.88;;;16.20;99.90;;;;;;5073975;28;20221;-88
2023/05/26 03:33:31;;;;;;;9.27;1.60;;;16.30;99.90;;;;;;5072332;28;20215;-88
2023/05/26 03:36:03;;;;;;;6.47;1.50;;;16.40;99.90;;;;;;5071576;28;20253;-88
2023/05/26 03:38:37;;;;;;;8.68;1.70;;;16.40;99.90;;;;;;5072236;28;20631;-89
2023/05/26 03:41:09;;;;;;;15.07;2.13;;;16.50;99.90;;;;;;5071858;28;20192;-88
2023/05/26 03:43:44;;;;;;;6.93;1.30;;;16.50;99.90;;;;;;5071712;28;20196;-89
2023/05/26 03:46:21;;;;;;;7.57;1.20;;;16.50;99.90;;;;;;5064330;28;20196;-86
2023/05/26 03:48:52;;;;;;;8.70;1.50;;;16.50;99.90;;;;;;5058725;28;20198;-87
2023/05/26 03:51:24;;;;;;;7.45;1.77;;;16.40;99.90;;;;;;5051982;28;20204;-88
2023/05/26 03:53:56;;;;;;;7.82;1.70;;;16.40;99.90;;;;;;5053100;28;20266;-86
2023/05/26 03:56:27;;;;;;;9.45;1.70;;;16.50;99.90;;;;;;5072639;28;20283;-88
2023/05/26 03:58:59;;;;;;;8.30;1.30;;;16.50;99.90;;;;;;5072440;28;20202;-88
2023/05/26 04:01:36;;;;;;;7.05;1.40;;;16.50;99.90;;;;;;5073224;28;20321;-88
2023/05/26 04:04:10;;;;;;;5.20;1.35;;;16.50;99.90;;;;;;5073063;28;20218;-87
2023/05/26 04:06:42;;;;;;;5.80;1.27;;;16.50;99.90;;;;;;5081158;28;20211;-88
2023/05/26 04:09:13;;;;;;;7.95;1.42;;;16.40;99.90;;;;;;5078237;28;20188;-88
2023/05/26 04:11:46;;;;;;;6.72;1.20;;;16.50;99.90;;;;;;5069624;28;20215;-88
2023/05/26 04:14:18;;;;;;;6.78;1.23;;;16.50;99.90;;;;;;5057878;28;20220;-87
2023/05/26 04:16:52;;;;;;;5.47;1.20;;;16.50;99.90;;;;;;5074778;28;20766;-87
2023/05/26 04:19:27;;;;;;;6.72;1.30;;;16.60;99.90;;;;;;5073073;28;20212;-87
2023/05/26 04:21:58;;;;;;;7.55;1.40;;;16.60;99.90;;;;;;5074334;28;20207;-87
2023/05/26 04:24:29;;;;;;;6.18;1.23;;;16.60;99.90;;;;;;5072974;28;20567;-87
2023/05/26 04:27:01;;;;;;;6.72;1.58;;;16.60;99.90;;;;;;5071877;28;20192;-88
2023/05/26 04:29:33;;;;;;;7.13;1.10;;;16.50;99.90;;;;;;5071692;28;20239;-87
2023/05/26 04:32:08;;;;;;;4.40;1.20;;;16.50;99.90;;;;;;5073118;28;20203;-87
2023/05/26 04:34:40;;;;;;;5.75;1.40;;;16.50;99.90;;;;;;5073380;28;20262;-87
2023/05/26 04:37:11;;;;;;;6.30;1.40;;;16.50;99.90;;;;;;5073575;28;20200;-89
2023/05/26 04:39:42;;;;;;;5.70;1.10;;;16.50;99.90;;;;;;5073727;28;20192;-88
2023/05/26 04:42:16;;;;;;;6.15;1.48;;;16.50;99.90;;;;;;5073143;28;20200;-88
2023/05/26 04:44:48;;;;;;;5.25;1.13;;;16.50;99.90;;;;;;5077029;28;20279;-87
2023/05/26 04:47:22;;;;;;;7.53;1.40;;;16.50;99.90;;;;;;5058201;28;20219;-87
2023/05/26 04:49:57;;;;;;;4.70;1.05;;;16.50;99.90;;;;;;5059481;28;20297;-89
2023/05/26 04:52:29;;;;;;;5.85;1.10;;;16.40;99.90;;;;;;5058886;28;20211;-88
2023/05/26 04:55:00;;;;;;;4.72;1.35;;;16.40;99.90;;;;;;5059778;28;20230;-89
2023/05/26 04:57:31;;;;;;;7.53;1.50;;;16.40;99.90;;;;;;5059106;28;20291;-88
2023/05/26 05:00:06;;;;;;;7.13;1.35;;;16.40;99.90;;;;;;5057250;28;20201;-88
2023/05/26 05:02:43;;;;;;;7.40;1.45;;;16.40;99.90;;;;;;5067468;28;20196;-87
2023/05/26 05:05:15;;;;;;;5.55;1.50;;;16.40;99.90;;;;;;5078819;28;20203;-88
2023/05/26 05:07:49;;;;;;;5.97;1.23;;;16.40;99.90;;;;;;5076871;28;20653;-89
2023/05/26 05:10:21;;;;;;;7.13;1.75;;;16.50;99.90;;;;;;5076692;28;20190;-88
2023/05/26 05:12:52;;;;;;;8.82;1.50;;;16.50;99.90;;;;;;5075474;28;20210;-88
2023/05/26 05:15:24;;;;;;;7.38;1.40;;;16.50;99.90;;;;;;5076199;28;20223;-88
2023/05/26 05:17:59;;;;;;;8.52;1.40;;;16.40;99.90;;;;;;5078022;28;20196;-88
2023/05/26 05:20:30;;;;;;;4.97;1.20;;;16.50;99.90;;;;;;5077144;28;20215;-89
2023/05/26 05:23:03;;;;;;;8.57;1.55;;;16.30;99.90;;;;;;5078738;28;20203;-88
2023/05/26 05:25:34;;;;;;;5.63;1.20;;;16.30;99.90;;;;;;5086278;28;20199;-88
2023/05/26 05:28:05;;;;;;;9.25;1.50;;;16.30;99.90;;;;;;5076157;28;20306;-88
2023/05/26 05:30:38;;;;;;;8.25;1.48;;;16.30;99.90;;;;;;5075894;28;20591;-88
2023/05/26 05:33:13;;;;;;;6.70;1.65;;;16.20;99.90;;;;;;5075860;28;20192;-89
2023/05/26 05:35:45;;;;;;;8.18;1.40;;;16.30;99.90;;;;;;5073443;28;20238;-89
2023/05/26 05:38:16;;;;;;;5.38;1.25;;;16.40;99.90;;;;;;5076950;28;20203;-89
2023/05/26 05:40:48;;;;;;;10.68;1.75;;;16.40;99.90;;;;;;5075442;28;20188;-88
2023/05/26 05:43:20;;;;;;;5.13;1.20;;;16.30;99.90;;;;;;5075906;28;20200;-88
2023/05/26 05:45:52;;;;;;;6.38;1.33;;;16.40;99.90;;;;;;5067025;28;20207;-88
2023/05/26 05:48:27;;;;;;;6.18;1.45;;;16.30;99.90;;;;;;5054408;28;20196;-88
2023/05/26 05:50:59;;;;;;;8.23;1.77;;;16.30;99.90;;;;;;5057006;28;20196;-88
2023/05/26 05:53:30;;;;;;;11.70;2.42;;;16.40;99.90;;;;;;5074085;28;20261;-88
2023/05/26 05:56:01;;;;;;;5.63;1.80;;;16.40;99.90;;;;;;5074867;28;20664;-88
2023/05/26 05:58:33;;;;;;;6.88;1.40;;;16.30;99.90;;;;;;5072915;28;20691;-89
2023/05/26 06:01:05;;;;;;;8.75;1.45;;;16.30;99.90;;;;;;5074763;28;20208;-89
2023/05/26 06:03:39;;;;;;;7.88;1.70;;;16.30;99.90;;;;;;5072679;28;20196;-88
2023/05/26 06:06:10;;;;;;;7.30;1.52;;;16.20;99.90;;;;;;5074371;28;20196;-87
2023/05/26 06:08:41;;;;;;;7.07;1.50;;;16.10;99.90;;;;;;5076253;28;20231;-87
2023/05/26 06:11:14;;;;;;;8.48;1.73;;;16.20;99.90;;;;;;5075247;28;20207;-88
2023/05/26 06:13:46;;;;;;;7.60;1.70;;;16.20;99.90;;;;;;5073767;28;20206;-88
2023/05/26 06:16:18;;;;;;;7.50;1.30;;;16.10;99.90;;;;;;5070928;28;20200;-88
2023/05/26 06:18:54;;;;;;;7.78;1.58;;;16.10;99.90;;;;;;5056202;28;20674;-88
2023/05/26 06:21:26;;;;;;;7.28;1.20;;;16.10;99.90;;;;;;5053662;28;20597;-88
2023/05/26 06:23:58;;;;;;;8.50;1.73;;;16.10;99.90;;;;;;5056512;28;20211;-88
2023/05/26 06:26:30;;;;;;;7.45;1.33;;;16.10;99.90;;;;;;5055768;28;20207;-88
2023/05/26 06:29:02;;;;;;;5.88;1.20;;;16.10;99.90;;;;;;5072929;28;20230;-88
2023/05/26 06:31:33;;;;;;;13.65;1.88;;;16.00;99.90;;;;;;5074707;28;20192;-89
2023/05/26 06:34:06;;;;;;;9.05;2.53;;;16.10;99.90;;;;;;5073006;28;20226;-88
2023/05/26 06:36:37;;;;;;;7.28;1.50;;;16.00;99.90;;;;;;5073089;28;20207;-89
2023/05/26 06:39:09;;;;;;;6.95;1.65;;;16.10;99.90;;;;;;5072752;28;20200;-89
2023/05/26 06:41:41;;;;;;;9.50;1.90;;;15.90;99.90;;;;;;5072944;28;20204;-88
2023/05/26 06:44:12;;;;;;;8.02;1.75;;;15.90;99.90;;;;;;5072610;28;20215;-88
2023/05/26 06:46:43;;;;;;;7.55;3.03;;;15.80;99.90;;;;;;5072922;28;20203;-88
2023/05/26 06:49:16;;;;;;;9.80;5.88;;;15.80;99.90;;;;;;5072723;28;20203;-88
2023/05/26 06:51:48;;;;;;;7.03;3.05;;;15.80;99.90;;;;;;5072728;28;20184;-89
2023/05/26 06:54:19;;;;;;;8.50;2.67;;;15.70;99.90;;;;;;5072917;28;20241;-89
2023/05/26 06:56:50;;;;;;;10.95;2.88;;;15.80;99.90;;;;;;5073309;28;20203;-89
2023/05/26 06:59:23;;;;;;;6.35;1.45;;;15.70;99.90;;;;;;5072707;28;20199;-88
2023/05/26 07:01:54;;;;;;;6.72;1.60;;;15.90;99.90;;;;;;5072576;28;20681;-89
2023/05/26 07:04:29;;;;;;;5.95;1.33;;;15.90;99.90;;;;;;5072671;28;20214;-89
2023/05/26 07:07:01;;;;;;;6.50;1.60;;;15.90;99.90;;;;;;5071221;28;20207;-89
2023/05/26 07:09:32;;;;;;;5.68;1.25;;;15.80;99.90;;;;;;5072624;28;20203;-89
2023/05/26 07:12:03;;;;;;;8.10;1.85;;;15.80;99.90;;;;;;5072498;28;20600;-89
2023/05/26 07:14:34;;;;;;;9.32;1.90;;;15.70;99.90;;;;;;5072329;28;20724;-88
2023/05/26 07:17:09;;;;;;;5.93;1.60;;;15.80;99.90;;;;;;5072249;28;20204;-88
2023/05/26 07:19:42;;;;;;;7.72;2.00;;;15.80;99.90;;;;;;5072460;28;20199;-89
2023/05/26 07:22:13;;;;;;;6.75;2.13;;;15.70;99.90;;;;;;5072278;28;20200;-89
2023/05/26 07:24:47;;;;;;;8.35;1.90;;;15.70;99.90;;;;;;5072291;28;20199;-89
2023/05/26 07:27:19;;;;;;;7.80;2.00;;;15.70;99.90;;;;;;5072225;28;20566;-89
2023/05/26 07:29:51;;;;;;;7.60;1.75;;;15.50;99.90;;;;;;5032069;28;20205;-88
2023/05/26 07:32:22;;;;;;;11.70;1.90;;;15.50;99.90;;;;;;5031835;28;20203;-89
2023/05/26 07:34:55;;;;;;;5.07;1.90;;;15.50;99.90;;;;;;5032360;28;20236;-90
2023/05/26 07:37:26;;;;;;;7.35;2.13;;;15.60;99.90;;;;;;5013265;28;20213;-89
2023/05/26 07:39:59;;;;;;;6.13;1.77;;;15.50;99.90;;;;;;5012525;28;20202;-88
2023/05/26 07:42:33;;;;;;;8.48;2.05;;;15.50;99.90;;;;;;5019392;28;20198;-87
2023/05/26 07:45:06;;;;;;;8.10;3.00;;;15.40;99.90;;;;;;5011852;28;20193;-87
2023/05/26 07:47:40;;;;;;;5.38;2.08;;;15.40;99.90;;;;;;5013978;28;20660;-87
2023/05/26 07:50:14;;;;;;;5.57;2.35;;;15.40;99.90;;;;;;5032321;28;20288;-86
2023/05/26 07:52:46;;;;;;;7.72;2.50;;;15.30;99.90;;;;;;5031780;28;20589;-87
2023/05/26 07:55:17;;;;;;;9.95;2.22;;;15.30;99.90;;;;;;5032054;28;20282;-86
2023/05/26 07:57:55;;;;;;;6.03;1.85;;;15.30;99.90;;;;;;5046796;28;20197;-86
2023/05/26 08:00:26;;;;;;;10.25;3.35;;;15.30;99.90;;;;;;5044120;28;20258;-85
2023/05/26 08:02:57;;;;;;;5.18;1.60;;;15.20;99.90;;;;;;5050177;28;20322;-86
2023/05/26 08:05:30;;;;;;;11.68;3.90;;;15.10;99.90;;;;;;5034119;28;20244;-86
2023/05/26 08:08:01;;;;;;;6.78;2.50;;;15.00;99.90;;;;;;5031435;28;20820;-85
2023/05/26 08:10:33;;;;;;;8.48;2.60;;;15.00;99.90;;;;;;5032369;28;20197;-86
2023/05/26 08:13:05;;;;;;;6.30;1.70;;;15.00;99.90;;;;;;5031886;28;20231;-87
2023/05/26 08:15:36;;;;;;;11.05;3.70;;;15.00;99.90;;;;;;5030735;28;20229;-88
2023/05/26 08:18:11;;;;;;;6.90;2.40;;;14.90;99.90;;;;;;5030956;28;20201;-86
2023/05/26 08:20:44;;;;;;;7.07;2.15;;;15.00;99.90;;;;;;5031703;28;20566;-86
2023/05/26 08:23:15;;;;;;;8.57;2.50;;;15.00;99.90;;;;;;5035230;28;20197;-85
2023/05/26 08:25:47;;;;;;;7.25;2.20;;;15.00;99.90;;;;;;5035173;28;20228;-87
2023/05/26 08:28:18;;;;;;;7.50;2.40;;;15.00;99.90;;;;;;5049922;28;20231;-88
2023/05/26 08:30:51;;;;;;;6.93;2.13;;;14.90;99.90;;;;;;5074953;28;20218;-87
2023/05/26 08:33:22;;;;;;;7.72;2.70;;;14.90;99.90;;;;;;5075096;28;20207;-87
2023/05/26 08:35:56;;;;;;;9.93;2.88;;;14.80;99.90;;;;;;5074887;28;20234;-88
2023/05/26 08:38:29;;;;;;;7.00;2.00;;;14.80;99.90;;;;;;5074970;28;20226;-88
2023/05/26 08:41:04;;;;;;;9.38;2.78;;;14.70;99.90;;;;;;5075004;28;20662;-87
2023/05/26 08:43:42;;;;;;;7.72;2.58;;;14.70;99.90;;;;;;5074446;28;20210;-88
2023/05/26 08:46:16;;;;;;;5.75;1.85;;;14.60;99.90;;;;;;5074726;28;20318;-87
2023/05/26 08:48:50;;;;;;;5.55;2.20;;;14.70;99.90;;;;;;5074823;28;20203;-87
2023/05/26 08:51:23;;;;;;;7.15;2.10;;;14.70;99.90;;;;;;5075171;28;20203;-87
2023/05/26 08:53:55;;;;;;;5.88;2.20;;;14.60;99.90;;;;;;5075307;28;20192;-87
2023/05/26 08:56:26;;;;;;;11.23;3.05;;;14.60;99.90;;;;;;5074391;28;20223;-87
2023/05/26 08:59:00;;;;;;;10.45;4.43;;;14.70;99.90;;;;;;5074176;28;20196;-87
2023/05/26 09:01:32;;;;;;;5.95;1.90;;;14.70;99.90;;;;;;5075096;28;20245;-87
2023/05/26 09:04:03;;;;;;;8.98;2.30;;;14.60;99.90;;;;;;5074807;28;20200;-87
2023/05/26 09:06:37;;;;;;;8.20;2.88;;;14.60;99.90;;;;;;5074950;28;20208;-87
2023/05/26 09:09:08;;;;;;;7.63;3.35;;;14.50;99.90;;;;;;5074164;28;20246;-88
2023/05/26 09:11:44;;;;;;;6.32;2.78;;;14.60;99.90;;;;;;5074272;28;20199;-88
2023/05/26 09:14:17;;;;;;;8.23;2.45;;;14.60;99.90;;;;;;5074022;28;20667;-88
2023/05/26 09:16:48;;;;;;;9.77;4.15;;;14.60;99.90;;;;;;5073891;28;20230;-88
2023/05/26 09:19:20;;;;;;;5.60;3.38;;;14.70;99.90;;;;;;5073648;28;20223;-88
2023/05/26 09:21:54;;;;;;;5.68;2.40;;;14.60;99.90;;;;;;5074569;28;20211;-87
2023/05/26 09:24:27;;;;;;;9.70;2.97;;;14.60;99.90;;;;;;5074032;28;20203;-88
2023/05/26 09:26:59;;;;;;;8.63;3.20;;;14.50;99.90;;;;;;5074062;28;20273;-88
2023/05/26 09:29:30;;;;;;;6.93;2.35;;;14.50;99.90;;;;;;5074193;28;20254;-87
2023/05/26 09:32:03;;;;;;;23.95;7.30;;;14.50;99.90;;;;;;5076262;28;20188;-87
2023/05/26 09:34:34;;;;;;;6.35;2.47;;;14.40;99.90;;;;;;5075802;28;20260;-87
2023/05/26 09:37:07;;;;;;;10.73;3.50;;;14.40;99.90;;;;;;5074231;28;20686;-88
2023/05/26 09:39:38;;;;;;;5.38;2.60;;;14.30;99.90;;;;;;5075066;28;20655;-87
2023/05/26 09:42:10;;;;;;;5.72;2.38;;;14.30;99.90;;;;;;5079306;28;20184;-86
2023/05/26 09:44:43;;;;;;;6.30;2.58;;;14.40;99.90;;;;;;5076067;28;20198;-87
2023/05/26 09:47:22;;;;;;;11.70;4.60;;;14.30;99.90;;;;;;5075914;28;20204;-86
2023/05/26 09:49:54;;;;;;;8.63;3.25;;;14.30;99.90;;;;;;5077238;28;20249;-86
2023/05/26 09:52:30;;;;;;;9.48;3.30;;;14.30;99.90;;;;;;5077087;28;20207;-87
2023/05/26 09:55:01;;;;;;;10.68;3.50;;;14.30;99.90;;;;;;5073723;28;20670;-86
2023/05/26 09:57:33;;;;;;;12.73;4.80;;;14.30;99.90;;;;;;5077077;28;20206;-86
2023/05/26 10:00:09;;;;;;;12.02;3.47;;;14.30;99.90;;;;;;5080545;28;20192;-86
2023/05/26 10:02:41;;;;;;;8.27;3.30;;;14.20;99.90;;;;;;5074532;28;20271;-86
2023/05/26 10:05:13;;;;;;;13.90;5.45;;;14.20;99.90;;;;;;5085435;28;20204;-86
2023/05/26 10:07:48;;;;;;;7.35;2.97;;;14.20;99.90;;;;;;5073566;28;20226;-87
2023/05/26 10:10:20;;;;;;;15.52;6.53;;;14.10;99.90;;;;;;5053699;28;20204;-86
2023/05/26 10:12:52;;;;;;;8.25;3.50;;;14.10;99.90;;;;;;5053406;28;20207;-87
2023/05/26 10:15:24;;;;;;;7.03;2.67;;;14.00;99.90;;;;;;5053396;28;20220;-87
2023/05/26 10:17:58;;;;;;;6.43;2.53;;;14.00;99.90;;;;;;5062092;28;20246;-86
2023/05/26 10:20:29;;;;;;;11.93;5.25;;;14.10;99.90;;;;;;5071831;28;20575;-87
2023/05/26 10:23:08;;;;;;;11.65;4.35;;;14.00;99.90;;;;;;5072936;28;20204;-86
2023/05/26 10:25:44;;;;;;;8.73;4.63;;;14.00;99.90;;;;;;5075254;28;20200;-87
2023/05/26 10:28:24;;;;;;;10.27;4.03;;;14.00;99.90;;;;;;5073671;28;20694;-87
2023/05/26 10:31:01;;;;;;;8.35;3.47;;;14.00;99.90;;;;;;5075676;28;20191;-87
2023/05/26 10:33:44;;;;;;;9.05;3.95;;;14.00;99.90;;;;;;5075711;28;20206;-87
2023/05/26 10:36:18;;;;;;;25.65;10.30;;;14.00;99.90;;;;;;5076140;28;20242;-87
2023/05/26 10:38:55;;;;;;;15.20;6.20;;;14.00;99.90;;;;;;5074837;28;20277;-86
2023/05/26 10:41:34;;;;;;;14.05;5.53;;;13.90;99.90;;;;;;5073359;28;20574;-87
2023/05/26 10:44:06;;;;;;;8.80;3.47;;;14.00;99.90;;;;;;5072275;28;20199;-87
2023/05/26 10:46:47;;;;;;;6.75;3.17;;;14.00;99.90;;;;;;5072595;28;20207;-90
2023/05/26 10:49:25;;;;;;;6.70;3.20;;;14.10;99.90;;;;;;5070090;28;20202;-87
2023/05/26 10:51:58;;;;;;;7.53;2.75;;;14.10;99.90;;;;;;5052078;28;20204;-88
2023/05/26 10:54:31;;;;;;;7.90;2.80;;;14.00;99.90;;;;;;5052251;28;20193;-88
2023/05/26 10:57:03;;;;;;;6.72;3.22;;;14.10;99.90;;;;;;5052344;28;20239;-87
2023/05/26 10:59:35;;;;;;;5.43;2.50;;;14.00;99.90;;;;;;5058794;28;20583;-87
2023/05/26 11:02:08;;;;;;;6.72;3.58;;;13.80;99.90;;;;;;5073615;28;20222;-87
2023/05/26 11:04:46;;;;;;;7.90;4.00;;;13.70;99.90;;;;;;5071877;28;20196;-87
2023/05/26 11:07:23;;;;;;;6.95;3.88;;;13.60;99.90;;;;;;5071728;28;20295;-86
2023/05/26 11:10:07;;;;;;;7.85;4.32;;;13.60;99.90;;;;;;5072480;28;20205;-87
2023/05/26 11:12:51;;;;;;;8.10;3.35;;;13.70;99.90;;;;;;5071959;28;20208;-86
2023/05/26 11:15:32;;;;;;;7.65;3.60;;;13.70;99.90;;;;;;5071620;28;20206;-87
2023/05/26 11:18:06;;;;;;;5.40;2.72;;;13.60;99.90;;;;;;5071808;28;20206;-86
2023/05/26 11:20:38;;;;;;;6.88;2.60;;;13.60;99.90;;;;;;5071983;28;20571;-86
2023/05/26 11:23:09;;;;;;;5.18;2.40;;;13.50;99.90;;;;;;5071682;28;20200;-86
2023/05/26 11:25:49;;;;;;;4.97;2.60;;;13.50;99.90;;;;;;5071791;28;20188;-86
2023/05/26 11:28:21;;;;;;;6.20;3.30;;;13.40;99.90;;;;;;5074544;28;20227;-87
2023/05/26 11:30:52;;;;;;;5.82;2.70;;;13.50;99.90;;;;;;5072472;28;20200;-87
2023/05/26 11:33:23;;;;;;;5.50;2.63;;;13.50;99.90;;;;;;5072339;28;20202;-87
2023/05/26 11:35:54;;;;;;;6.18;2.85;;;13.50;99.90;;;;;;5074172;28;20229;-86
2023/05/26 11:38:26;;;;;;;4.38;2.38;;;13.60;99.90;;;;;;5074138;28;20646;-87
2023/05/26 11:41:00;;;;;;;6.43;2.60;;;13.50;99.90;;;;;;5074279;28;20210;-87
2023/05/26 11:43:40;;;;;;;4.53;2.53;;;13.40;99.90;;;;;;5073473;28;20195;-86
2023/05/26 11:46:16;;;;;;;5.90;2.30;;;13.30;99.90;;;;;;5075139;28;20219;-87
2023/05/26 11:48:48;;;;;;;5.55;2.70;;;13.30;99.90;;;;;;5073761;28;20191;-88
2023/05/26 11:51:21;;;;;;;4.47;2.25;;;13.30;99.90;;;;;;5073226;28;20200;-87
2023/05/26 11:53:56;;;;;;;5.25;2.20;;;13.30;99.90;;;;;;5073909;28;20196;-88
2023/05/26 11:56:36;;;;;;;6.85;2.30;;;13.30;99.90;;;;;;5077600;28;20238;-88
2023/05/26 11:59:08;;;;;;;6.50;2.33;;;13.30;99.90;;;;;;5082128;28;20230;-88
2023/05/26 12:01:43;;;;;;;4.28;2.00;;;13.30;99.90;;;;;;5076299;28;20222;-88
2023/05/26 12:04:15;;;;;;;6.72;2.30;;;13.10;99.90;;;;;;5076613;28;20200;-88
2023/05/26 12:06:48;;;;;;;6.47;2.20;;;13.20;99.90;;;;;;5076049;28;20310;-87
2023/05/26 12:09:24;;;;;;;4.88;1.95;;;13.20;99.90;;;;;;5054603;28;20632;-86
2023/05/26 12:11:59;;;;;;;6.60;1.95;;;13.20;99.90;;;;;;5061955;28;20621;-87
2023/05/26 12:14:31;;;;;;;5.80;1.92;;;13.20;99.90;;;;;;5057984;28;20203;-87
2023/05/26 12:17:02;;;;;;;4.93;2.10;;;13.20;99.90;;;;;;5055780;28;20224;-87
2023/05/26 12:19:36;;;;;;;4.72;2.05;;;13.30;99.90;;;;;;5065280;28;20275;-87
2023/05/26 12:22:08;;;;;;;6.57;2.30;;;13.20;99.90;;;;;;5075345;28;20248;-88
2023/05/26 12:24:39;;;;;;;3.85;2.13;;;13.20;99.90;;;;;;5075182;28;20208;-86
2023/05/26 12:27:18;;;;;;;6.88;2.30;;;13.10;99.90;;;;;;5074417;28;20192;-88
2023/05/26 12:29:52;;;;;;;5.70;2.40;;;13.10;99.90;;;;;;5073096;28;20227;-87
2023/05/26 12:32:23;;;;;;;5.25;2.33;;;13.00;99.90;;;;;;5075170;28;20199;-87
2023/05/26 12:34:55;;;;;;;9.00;2.42;;;12.90;99.90;;;;;;5076070;28;20238;-87
2023/05/26 12:37:30;;;;;;;8.95;2.20;;;12.90;99.90;;;;;;5074101;28;20223;-88
2023/05/26 12:40:02;;;;;;;4.47;2.47;;;13.00;99.90;;;;;;5082581;28;20176;-86
2023/05/26 12:42:37;;;;;;;3.65;2.28;;;12.80;99.90;;;;;;5095277;28;20184;-87
2023/05/26 12:45:10;;;;;;;4.63;2.28;;;12.80;99.90;;;;;;5095797;28;20179;-86
2023/05/26 12:47:42;;;;;;;6.22;2.50;;;12.80;99.90;;;;;;5084482;28;20203;-87
2023/05/26 12:50:15;;;;;;;5.97;2.55;;;12.80;99.90;;;;;;5076373;28;20200;-87
2023/05/26 12:52:48;;;;;;;4.53;2.35;;;12.90;99.90;;;;;;5075897;28;20183;-87
2023/05/26 12:55:21;;;;;;;6.90;2.70;;;12.90;99.90;;;;;;5074985;28;20666;-87
2023/05/26 12:57:57;;;;;;;7.28;3.00;;;13.00;99.90;;;;;;5075434;28;20212;-88
2023/05/26 13:00:29;;;;;;;4.32;2.50;;;13.00;99.90;;;;;;5054535;28;20200;-87
2023/05/26 13:03:32;;;;;;;6.00;2.40;;;12.80;99.90;;;;;;5060085;28;20188;-88
2023/05/26 13:06:03;;;;;;;3.45;2.10;;;12.80;99.90;;;;;;5057398;28;20613;-87
2023/05/26 13:08:34;;;;;;;4.28;2.20;;;12.80;99.90;;;;;;5061765;28;20295;-87
2023/05/26 13:11:10;;;;;;;5.75;2.38;;;12.80;99.90;;;;;;5062157;28;20544;-87
2023/05/26 13:13:48;;;;;;;4.53;2.50;;;12.80;99.90;;;;;;5060963;28;20546;-87
2023/05/26 13:16:22;;;;;;;4.22;2.35;;;12.90;99.90;;;;;;5073114;28;20227;-88